Sedona, AZ

5:08 PM MST on October 14, 2019 (GMT -0700)
Sedona

Weather History for KSEZ - August, 2019

Change the Weather History Date:

Saturday, August 17, 2019

  Actual Average Record
Temperature  
Mean Temperature 82 °F -  
Max Temperature 96 °F 92 °F 98 °F (2011)
Min Temperature 69 °F 62 °F 64 °F (2017)
Cooling Degree Days 18    
Growing Degree Days 32 (Base 50)    
Moisture  
Dew Point 42 °F    
Average Humidity 25    
Maximum Humidity 38    
Minimum Humidity 13    
Precipitation  
Precipitation 0.00 in - - ()
Sea Level Pressure  
Sea Level Pressure 30.06 in    
Wind  
Wind Speed 5 mph (SSE)    
Max Wind Speed 17 mph    
Max Gust Speed 25 mph    
Visibility 10 miles    
Events      
Averages and records for this station are not official NWS values.
T = Trace of Precipitation, MM = Missing Value Source: NWS Daily Summary

Daily Weather History Graph

Daily Weather History Graph

Search for Another Location

Airport or City:

Astronomy

Aug. 17, 2019 Rise Set
Actual Time 5:48 AM MST 7:13 PM MST
Civil Twilight 5:22 AM MST 7:39 PM MST
Nautical Twilight 4:50 AM MST 8:11 PM MST
Astronomical Twilight 4:16 AM MST 8:44 PM MST
Moon 8:46 PM MST (8/17) 7:38 AM MST (8/17)
Length of Visible Light 14h 17m
Length of Day
13h 24m
Waning Gibbous, 95% of the Moon is Illuminated
Aug 17
Waning Gibbous
Aug 23
Last Quarter
Aug 30
New
Sep 5
First Quarter
Sep 13
Full

Hourly Weather History & Observations

Time (MST) Temp. Dew Point Humidity Pressure Visibility Wind Dir Wind Speed Gust Speed Precip Events Conditions
12:15 AM 78.8 °F 41.0 °F 26% 30.08 in 10.0 mi SE 4.6 mph - N/A   Clear
12:35 AM 77.0 °F 41.0 °F 28% 30.08 in 10.0 mi NNE 3.5 mph - N/A   Clear
12:55 AM 75.2 °F 41.0 °F 29% 30.08 in 10.0 mi NNE 4.6 mph - N/A   Clear
1:15 AM 77.0 °F 41.0 °F 28% 30.07 in 10.0 mi Calm Calm - N/A   Clear
1:35 AM 75.2 °F 41.0 °F 29% 30.07 in 10.0 mi NNE 5.8 mph - N/A   Clear
1:55 AM 75.2 °F 42.8 °F 31% 30.07 in 10.0 mi NNE 3.5 mph - N/A   Clear
2:15 AM 73.4 °F 41.0 °F 31% 30.06 in 10.0 mi NNE 5.8 mph - N/A   Clear
2:35 AM 73.4 °F 42.8 °F 33% 30.06 in 10.0 mi NE 3.5 mph - N/A   Clear
2:55 AM 73.4 °F 42.8 °F 33% 30.06 in 10.0 mi Calm Calm - N/A   Clear
3:15 AM 73.4 °F 41.0 °F 31% 30.05 in 10.0 mi Calm Calm - N/A   Clear
3:35 AM 73.4 °F 42.8 °F 33% 30.06 in 10.0 mi Calm Calm - N/A   Clear
3:55 AM 71.6 °F 41.0 °F 33% 30.06 in 10.0 mi Calm Calm - N/A   Clear
4:15 AM 73.4 °F 42.8 °F 33% 30.05 in 10.0 mi Calm Calm - N/A   Clear
4:35 AM 71.6 °F 42.8 °F 35% 30.06 in 10.0 mi Calm Calm - N/A   Clear
4:55 AM 71.6 °F 42.8 °F 35% 30.06 in 10.0 mi Calm Calm - N/A   Clear
5:15 AM 71.6 °F 42.8 °F 35% 30.07 in 10.0 mi Calm Calm - N/A   Clear
5:35 AM 69.8 °F 41.0 °F 35% 30.07 in 10.0 mi Calm Calm - N/A   Clear
5:55 AM 71.6 °F 41.0 °F 33% 30.08 in 10.0 mi Calm Calm - N/A   Clear
6:15 AM 69.8 °F 42.8 °F 38% 30.09 in 10.0 mi Calm Calm - N/A   Clear
6:35 AM 71.6 °F 42.8 °F 35% 30.09 in 10.0 mi North 3.5 mph - N/A   Clear
6:55 AM 71.6 °F 44.6 °F 38% 30.10 in 10.0 mi Calm Calm - N/A   Clear
7:15 AM 73.4 °F 44.6 °F 36% 30.10 in 10.0 mi NNE 4.6 mph - N/A   Clear
7:35 AM 75.2 °F 44.6 °F 34% 30.10 in 10.0 mi Calm Calm - N/A   Clear
7:55 AM 78.8 °F 46.4 °F 32% 30.11 in 10.0 mi SE 3.5 mph - N/A   Clear
8:15 AM 78.8 °F 50.0 °F 36% 30.11 in 10.0 mi SSE 4.6 mph - N/A   Clear
8:35 AM 80.6 °F 51.8 °F 37% 30.12 in 10.0 mi SE 3.5 mph - N/A   Clear
8:55 AM 82.4 °F 51.8 °F 35% 30.12 in 10.0 mi SSE 6.9 mph - N/A   Clear
9:15 AM 82.4 °F 51.8 °F 35% 30.12 in 10.0 mi ESE 5.8 mph - N/A   Clear
9:35 AM 82.4 °F 51.8 °F 35% 30.12 in 10.0 mi SSW 3.5 mph - N/A   Clear
9:55 AM 82.4 °F 51.8 °F 35% 30.12 in 10.0 mi SE 10.4 mph - N/A   Clear
10:15 AM 87.8 °F 50.0 °F 27% 30.12 in 10.0 mi South 9.2 mph - N/A   Clear
10:35 AM 87.8 °F 50.0 °F 27% 30.12 in 10.0 mi South 6.9 mph - N/A   Clear
10:55 AM 87.8 °F 48.2 °F 25% 30.11 in 10.0 mi South 11.5 mph 17.3 mph N/A   Clear
11:15 AM 91.4 °F 46.4 °F 21% 30.10 in 10.0 mi SSE 4.6 mph - N/A   Clear
11:35 AM 89.6 °F 46.4 °F 22% 30.10 in 10.0 mi South 11.5 mph 18.4 mph N/A   Clear
11:55 AM 89.6 °F 44.6 °F 21% 30.09 in 10.0 mi South 8.1 mph - N/A   Clear
12:15 PM 89.6 °F 42.8 °F 20% 30.08 in 10.0 mi SSW 10.4 mph 16.1 mph N/A   Clear
12:35 PM 89.6 °F 42.8 °F 20% 30.08 in 10.0 mi South 12.7 mph 18.4 mph N/A   Clear
12:55 PM 91.4 °F 39.2 °F 16% 30.07 in 10.0 mi West 3.5 mph - N/A   Clear
1:15 PM 93.2 °F 41.0 °F 16% 30.06 in 10.0 mi SSW 11.5 mph 20.7 mph N/A   Clear
1:35 PM 95.0 °F 41.0 °F 15% 30.06 in 10.0 mi South 4.6 mph 16.1 mph N/A   Clear
1:55 PM 91.4 °F 41.0 °F 17% 30.04 in 10.0 mi SSW 5.8 mph 19.6 mph N/A   Clear
2:15 PM 95.0 °F 39.2 °F 14% 30.03 in 10.0 mi SE 15.0 mph 20.7 mph N/A   Clear
2:35 PM 95.0 °F 39.2 °F 14% 30.03 in 10.0 mi SSW 13.8 mph 25.3 mph N/A   Clear
2:55 PM 93.2 °F 37.4 °F 14% 30.03 in 10.0 mi Calm Calm - N/A   Clear
3:15 PM 95.0 °F 37.4 °F 13% 30.02 in 10.0 mi South 9.2 mph - N/A   Scattered Clouds
3:35 PM 96.8 °F 37.4 °F 13% 30.02 in 10.0 mi SSW 13.8 mph 20.7 mph N/A   Scattered Clouds
3:55 PM 95.0 °F 37.4 °F 13% 30.01 in 10.0 mi SSE 11.5 mph 24.2 mph N/A   Clear
4:15 PM 93.2 °F 37.4 °F 14% 30.00 in 10.0 mi SSE 5.8 mph - N/A   Clear
4:55 PM 91.4 °F 37.4 °F 15% 30.00 in 10.0 mi SSE 8.1 mph 19.6 mph N/A   Clear
5:15 PM 91.4 °F 37.4 °F 15% 29.99 in 10.0 mi SSW 17.3 mph 24.2 mph N/A   Clear
5:35 PM 89.6 °F 37.4 °F 16% 29.99 in 10.0 mi South 10.4 mph 19.6 mph N/A   Clear
5:55 PM 89.6 °F 39.2 °F 17% 29.99 in 10.0 mi South 13.8 mph 20.7 mph N/A   Clear
6:15 PM 87.8 °F 39.2 °F 18% 29.99 in 10.0 mi South 12.7 mph 20.7 mph N/A   Clear
6:35 PM 87.8 °F 39.2 °F 18% 29.99 in 10.0 mi SSW 12.7 mph 19.6 mph N/A   Clear
6:55 PM 86.0 °F 39.2 °F 19% 30.00 in 10.0 mi South 10.4 mph 20.7 mph N/A   Clear
7:15 PM 86.0 °F 41.0 °F 20% 30.00 in 10.0 mi South 15.0 mph 23.0 mph N/A   Clear
8:15 PM 82.4 °F 37.4 °F 20% 30.02 in 10.0 mi South 8.1 mph - N/A   Clear
8:35 PM 82.4 °F 37.4 °F 20% 30.04 in 10.0 mi South 5.8 mph - N/A   Scattered Clouds
8:55 PM 80.6 °F 37.4 °F 21% 30.04 in 10.0 mi SSE 5.8 mph - N/A   Clear
9:15 PM 80.6 °F 37.4 °F 21% 30.05 in 10.0 mi SSE 6.9 mph - N/A   Clear
9:35 PM 80.6 °F 37.4 °F 21% 30.06 in 10.0 mi SE 6.9 mph - N/A   Clear
9:55 PM 80.6 °F 37.4 °F 21% 30.06 in 10.0 mi SE 6.9 mph - N/A   Clear
10:15 PM 78.8 °F 37.4 °F 23% 30.06 in 10.0 mi SE 5.8 mph - N/A   Clear
10:35 PM 78.8 °F 37.4 °F 23% 30.06 in 10.0 mi SSE 3.5 mph - N/A   Clear
10:55 PM 78.8 °F 37.4 °F 23% 30.06 in 10.0 mi SSW 3.5 mph - N/A   Clear
11:15 PM 78.8 °F 37.4 °F 23% 30.06 in 10.0 mi SSW 3.5 mph - N/A   Clear
11:30 PM 78.8 °F 39.2 °F 24% 30.06 in 10.0 mi Calm Calm - N/A   Clear
11:55 PM 77.0 °F 37.4 °F 24% 30.06 in 10.0 mi ESE 3.5 mph - N/A   Clear